createdAt,value
2019-05-20T00:01:52.712Z,98911.87
2019-05-20T00:04:56.410Z,98906.90
2019-05-20T00:08:00.037Z,98907.45
2019-05-20T00:11:03.873Z,98914.29
2019-05-20T00:14:07.528Z,98904.66
2019-05-20T00:17:11.308Z,98906.08
2019-05-20T00:20:15.064Z,98916.52
2019-05-20T00:23:18.691Z,98932.20
2019-05-20T00:26:22.398Z,98922.59
2019-05-20T00:29:29.081Z,98930.32
2019-05-20T00:32:41.358Z,98936.08
2019-05-20T00:35:39.678Z,98945.71
2019-05-20T00:38:46.556Z,98942.94
2019-05-20T00:41:57.945Z,98936.35
2019-05-20T00:45:05.924Z,98932.47
2019-05-20T00:48:15.432Z,98934.41
2019-05-20T00:51:19.060Z,98926.70
2019-05-20T00:54:22.793Z,98923.41
2019-05-20T00:57:26.402Z,98926.72
2019-05-20T01:00:32.474Z,98922.84
2019-05-20T01:03:35.853Z,98920.39
2019-05-20T01:06:39.469Z,98912.41
2019-05-20T01:09:47.497Z,98914.02
2019-05-20T01:12:50.256Z,98918.41
2019-05-20T01:15:53.918Z,98917.84
2019-05-20T01:18:59.094Z,98909.61
2019-05-20T01:22:02.720Z,98902.72
2019-05-20T01:25:06.944Z,98905.20
2019-05-20T01:28:10.567Z,98898.34
2019-05-20T01:31:14.306Z,98890.00
2019-05-20T01:34:17.998Z,98886.98
2019-05-20T01:37:21.665Z,98885.09
2019-05-20T01:40:25.297Z,98894.47
2019-05-20T01:43:30.520Z,98892.27
2019-05-20T01:46:35.734Z,98898.05
2019-05-20T01:49:40.914Z,98895.81
2019-05-20T01:52:44.537Z,98903.46
2019-05-20T01:55:49.851Z,98897.41
2019-05-20T01:58:55.097Z,98889.67
2019-05-20T02:02:01.451Z,98894.00
2019-05-20T02:05:06.635Z,98898.67
2019-05-20T02:08:10.228Z,98890.11
2019-05-20T02:11:13.921Z,98891.50
2019-05-20T02:14:24.894Z,98891.27
2019-05-20T02:17:30.067Z,98887.69
2019-05-20T02:20:33.743Z,98881.59
2019-05-20T02:23:37.382Z,98888.11
2019-05-20T02:26:42.603Z,98883.80
2019-05-20T02:29:46.236Z,98877.52
2019-05-20T02:32:49.871Z,98871.47
2019-05-20T02:35:55.163Z,98872.60
2019-05-20T02:39:00.394Z,98872.27
2019-05-20T02:42:07.096Z,98864.55
2019-05-20T02:45:11.030Z,98851.66
2019-05-20T02:48:14.704Z,98850.16
2019-05-20T02:51:22.788Z,98843.30
2019-05-20T02:54:28.087Z,98842.98
2019-05-20T02:57:33.303Z,98840.75
2019-05-20T03:00:39.356Z,98840.98
2019-05-20T03:03:42.862Z,98848.58
2019-05-20T03:06:46.430Z,98842.28
2019-05-20T03:09:51.697Z,98841.44
2019-05-20T03:12:56.841Z,98839.48
2019-05-20T03:16:02.752Z,98841.66
2019-05-20T03:19:06.322Z,98847.14
2019-05-20T03:22:09.861Z,98846.33
2019-05-20T03:25:17.764Z,98851.98
2019-05-20T03:28:22.849Z,98841.53
2019-05-20T03:31:29.256Z,98844.80
2019-05-20T03:34:46.608Z,98850.61
2019-05-20T03:37:38.362Z,98864.96
2019-05-20T03:40:44.495Z,98868.45
2019-05-20T03:43:48.116Z,98863.36
2019-05-20T03:46:53.500Z,98854.81
2019-05-20T03:49:57.063Z,98859.28
2019-05-20T03:53:02.322Z,98857.75
2019-05-20T03:56:05.934Z,98852.59
2019-05-20T03:59:09.478Z,98851.81
2019-05-20T04:02:14.359Z,98850.01
2019-05-20T04:05:18.256Z,98847.34
2019-05-20T04:08:22.017Z,98853.77
2019-05-20T04:11:27.701Z,98846.86
2019-05-20T04:14:32.853Z,98853.65
2019-05-20T04:17:36.396Z,98854.91
2019-05-20T04:20:42.451Z,98858.30
2019-05-20T04:23:50.816Z,98855.36
2019-05-20T04:26:54.624Z,98854.14
2019-05-20T04:29:58.348Z,98855.31
2019-05-20T04:33:02.049Z,98862.89
2019-05-20T04:36:07.282Z,98859.28
2019-05-20T04:39:10.955Z,98856.62
2019-05-20T04:42:16.150Z,98857.63
2019-05-20T04:45:19.808Z,98861.47
2019-05-20T04:48:25.345Z,98863.40
2019-05-20T04:51:29.076Z,98865.23
2019-05-20T04:54:32.772Z,98866.86
2019-05-20T04:57:36.450Z,98865.23
2019-05-20T05:00:49.131Z,98865.15
2019-05-20T05:03:52.796Z,98856.45
2019-05-20T05:06:56.473Z,98856.28
2019-05-20T05:10:03.165Z,98859.56
2019-05-20T05:13:06.955Z,98873.42
2019-05-20T05:16:10.666Z,98874.23
2019-05-20T05:19:14.424Z,98879.90
2019-05-20T05:22:18.130Z,98872.94
2019-05-20T05:25:22.064Z,98883.64
2019-05-20T05:28:25.989Z,98887.20
2019-05-20T05:31:29.645Z,98876.26
2019-05-20T05:34:33.283Z,98875.27
2019-05-20T05:37:36.904Z,98882.94
2019-05-20T05:40:40.715Z,98882.22
2019-05-20T05:43:44.329Z,98888.00
2019-05-20T05:46:48.007Z,98888.36
2019-05-20T05:49:51.719Z,98891.97
2019-05-20T05:52:55.477Z,98885.77
2019-05-20T05:55:59.116Z,98876.77
2019-05-20T05:59:02.777Z,98876.23
2019-05-20T06:02:06.419Z,98873.77
2019-05-20T06:05:10.958Z,98863.53
2019-05-20T06:08:14.737Z,98869.20
2019-05-20T06:11:18.382Z,98860.02
2019-05-20T06:14:22.037Z,98862.33
2019-05-20T06:17:25.640Z,98868.11
2019-05-20T06:20:29.332Z,98864.80
2019-05-20T06:23:32.957Z,98864.57
2019-05-20T06:26:37.204Z,98867.96
2019-05-20T06:29:40.839Z,98866.17
2019-05-20T06:32:44.640Z,98863.87
2019-05-20T06:35:49.074Z,98859.22
2019-05-20T06:38:56.825Z,98863.77
2019-05-20T06:42:00.463Z,98866.14
2019-05-20T06:45:06.256Z,98861.02
2019-05-20T06:48:09.950Z,98865.67
2019-05-20T06:51:13.605Z,98868.67
2019-05-20T06:54:17.336Z,98864.34
2019-05-20T06:57:23.856Z,98857.16
2019-05-20T07:00:34.428Z,98854.98
2019-05-20T07:03:38.065Z,98851.56
2019-05-20T07:06:46.535Z,98854.21
2019-05-20T07:09:47.265Z,98844.33
2019-05-20T07:12:50.869Z,98849.52
2019-05-20T07:15:54.552Z,98853.55
2019-05-20T07:18:58.210Z,98859.69
2019-05-20T07:22:01.851Z,98846.20
2019-05-20T07:25:06.854Z,98844.91
2019-05-20T07:28:10.556Z,98843.53
2019-05-20T07:31:14.221Z,98837.43
2019-05-20T07:34:18.117Z,98838.16
2019-05-20T07:37:21.882Z,98838.58
2019-05-20T07:40:32.593Z,98830.69
2019-05-20T07:43:36.278Z,98825.09
2019-05-20T07:46:40.105Z,98826.92
2019-05-20T07:49:44.271Z,98827.73
2019-05-20T07:52:48.089Z,98824.86
2019-05-20T07:55:54.804Z,98821.64
2019-05-20T07:59:01.518Z,98816.31
2019-05-20T08:02:05.269Z,98813.69
2019-05-20T08:05:09.998Z,98816.92
2019-05-20T08:08:14.108Z,98826.45
2019-05-20T08:11:17.935Z,98819.55
2019-05-20T08:14:21.747Z,98824.35
2019-05-20T08:17:25.625Z,98820.73
2019-05-20T08:20:29.284Z,98823.05
2019-05-20T08:23:33.117Z,98825.81
2019-05-20T08:26:36.989Z,98827.53
2019-05-20T08:29:40.602Z,98829.63
2019-05-20T08:32:44.265Z,98836.16
2019-05-20T08:35:47.867Z,98839.30
2019-05-20T08:38:51.670Z,98837.17
2019-05-20T08:41:55.313Z,98835.05
2019-05-20T08:44:58.951Z,98829.17
2019-05-20T08:48:02.594Z,98829.42
2019-05-20T08:51:06.235Z,98821.34
2019-05-20T08:54:09.904Z,98831.12
2019-05-20T08:57:13.682Z,98832.86
2019-05-20T09:00:23.975Z,98834.83
2019-05-20T09:03:30.346Z,98830.69
2019-05-20T09:06:32.924Z,98837.54
2019-05-20T09:09:36.662Z,98837.10
2019-05-20T09:12:40.344Z,98835.58
2019-05-20T09:15:45.471Z,98836.91
2019-05-20T09:18:49.373Z,98839.03
2019-05-20T09:21:56.818Z,98834.53
2019-05-20T09:25:00.444Z,98834.53
2019-05-20T09:28:04.252Z,98833.06
2019-05-20T09:31:08.802Z,98820.45
2019-05-20T09:34:12.411Z,98819.37
2019-05-20T09:37:16.076Z,98818.62
2019-05-20T09:40:25.410Z,98818.01
2019-05-20T09:43:29.057Z,98819.62
2019-05-20T09:46:32.704Z,98816.28
2019-05-20T09:49:36.405Z,98817.66
2019-05-20T09:52:40.141Z,98815.28
2019-05-20T09:55:43.818Z,98815.16
2019-05-20T09:58:47.454Z,98811.23
2019-05-20T10:01:51.180Z,98813.41
2019-05-20T10:04:54.804Z,98816.93
2019-05-20T10:07:59.330Z,98818.98
2019-05-20T10:11:02.954Z,98818.08
2019-05-20T10:14:06.691Z,98814.60
2019-05-20T10:17:10.299Z,98813.94
2019-05-20T10:20:15.201Z,98816.20
2019-05-20T10:23:18.832Z,98812.67
2019-05-20T10:26:22.490Z,98812.80
2019-05-20T10:29:26.125Z,98813.18
2019-05-20T10:32:29.802Z,98814.92
2019-05-20T10:35:33.430Z,98813.15
2019-05-20T10:38:54.955Z,98807.44
2019-05-20T10:41:42.504Z,98808.11
2019-05-20T10:44:46.164Z,98807.73
2019-05-20T10:47:49.876Z,98804.21
2019-05-20T10:50:53.491Z,98812.64
2019-05-20T10:53:57.150Z,98808.94
2019-05-20T10:57:00.816Z,98813.80
2019-05-20T11:00:08.816Z,98808.42
2019-05-20T11:03:12.437Z,98807.55
2019-05-20T11:06:16.138Z,98807.13
2019-05-20T11:09:19.745Z,98800.38
2019-05-20T11:12:23.484Z,98804.70
2019-05-20T11:15:27.147Z,98801.05
2019-05-20T11:18:30.837Z,98799.70
2019-05-20T11:21:34.529Z,98795.81
2019-05-20T11:24:38.275Z,98800.99
2019-05-20T11:27:41.915Z,98795.88
2019-05-20T11:30:45.539Z,98797.92
2019-05-20T11:33:49.208Z,98793.84
2019-05-20T11:36:52.852Z,98796.88
2019-05-20T11:39:56.536Z,98803.71
2019-05-20T11:43:00.155Z,98799.05
2019-05-20T11:46:03.906Z,98799.93
2019-05-20T11:49:07.550Z,98792.50
2019-05-20T11:52:11.254Z,98800.98
2019-05-20T11:55:14.994Z,98806.39
2019-05-20T11:58:18.652Z,98797.41
2019-05-20T12:01:22.356Z,98802.70
2019-05-20T12:04:25.952Z,98801.56
2019-05-20T12:07:29.618Z,98801.04
2019-05-20T12:10:33.317Z,98796.62
2019-05-20T12:13:36.951Z,98797.87
2019-05-20T12:16:40.789Z,98794.09
2019-05-20T12:19:44.416Z,98798.92
2019-05-20T12:22:49.782Z,98805.28
2019-05-20T12:25:53.406Z,98809.53
2019-05-20T12:28:58.903Z,98798.04
2019-05-20T12:32:03.641Z,98800.83
2019-05-20T12:35:08.018Z,98796.73
2019-05-20T12:38:13.381Z,98796.28
2019-05-20T12:41:17.013Z,98800.42
2019-05-20T12:44:20.705Z,98803.96
2019-05-20T12:47:24.329Z,98799.91
2019-05-20T12:50:28.033Z,98799.63
2019-05-20T12:53:31.717Z,98796.24
2019-05-20T12:56:35.587Z,98800.64
2019-05-20T12:59:39.269Z,98803.64
2019-05-20T13:02:42.889Z,98802.67
2019-05-20T13:05:46.573Z,98803.87
2019-05-20T13:08:51.793Z,98805.53
2019-05-20T13:11:55.517Z,98802.28
2019-05-20T13:14:59.160Z,98800.47
2019-05-20T13:18:02.842Z,98790.37
2019-05-20T13:21:06.492Z,98794.53
2019-05-20T13:24:10.167Z,98789.63
2019-05-20T13:27:15.574Z,98783.18
2019-05-20T13:30:20.699Z,98773.30
2019-05-20T13:33:24.265Z,98765.23
2019-05-20T13:36:27.979Z,98750.63
2019-05-20T13:39:31.612Z,98753.44
2019-05-20T13:42:36.911Z,98748.05
2019-05-20T13:45:40.603Z,98741.25
2019-05-20T13:48:44.286Z,98752.50
2019-05-20T13:51:48.042Z,98745.24
2019-05-20T13:54:51.728Z,98750.84
2019-05-20T13:57:55.471Z,98745.91
2019-05-20T14:00:59.361Z,98741.56
2019-05-20T14:04:04.654Z,98750.27
2019-05-20T14:07:08.269Z,98743.53
2019-05-20T14:10:12.465Z,98740.92
2019-05-20T14:13:16.113Z,98737.73
2019-05-20T14:16:19.763Z,98740.87
2019-05-20T14:19:29.345Z,98733.19
2019-05-20T14:22:30.309Z,98735.01
2019-05-20T14:25:33.973Z,98733.31
2019-05-20T14:28:37.642Z,98728.16
2019-05-20T14:31:42.513Z,98727.11
2019-05-20T14:34:46.200Z,98732.36
2019-05-20T14:37:49.791Z,98717.46
2019-05-20T14:40:55.350Z,98711.13
2019-05-20T14:44:00.484Z,98711.17
2019-05-20T14:47:04.146Z,98706.84
2019-05-20T14:50:14.631Z,98706.44
2019-05-20T14:53:19.778Z,98706.81
2019-05-20T14:56:31.864Z,98707.94
2019-05-20T14:59:43.523Z,98704.90
2019-05-20T15:02:47.229Z,98697.66
2019-05-20T15:05:51.201Z,98707.68
2019-05-20T15:08:55.286Z,98709.53
2019-05-20T15:11:58.900Z,98703.83
2019-05-20T15:15:02.643Z,98710.11
2019-05-20T15:18:06.346Z,98713.63
2019-05-20T15:21:10.008Z,98707.98
2019-05-20T15:24:13.717Z,98718.59
2019-05-20T15:27:17.412Z,98724.31
2019-05-20T15:30:21.167Z,98717.77
2019-05-20T15:33:24.872Z,98717.11
2019-05-20T15:36:28.495Z,98715.48
2019-05-20T15:39:32.183Z,98715.27
2019-05-20T15:42:35.827Z,98711.03
2019-05-20T15:45:39.450Z,98719.44
2019-05-20T15:48:43.252Z,98720.90
2019-05-20T15:51:46.901Z,98718.66
2019-05-20T15:54:51.860Z,98718.70
2019-05-20T15:57:55.482Z,98722.24
2019-05-20T16:00:59.166Z,98717.77
2019-05-20T16:04:02.818Z,98717.23
2019-05-20T16:07:06.540Z,98718.23
2019-05-20T16:10:10.292Z,98716.94
2019-05-20T16:13:14.018Z,98719.55
2019-05-20T16:16:17.634Z,98710.73
2019-05-20T16:19:21.360Z,98706.52
2019-05-20T16:22:25.035Z,98695.90
2019-05-20T16:25:28.781Z,98698.89
2019-05-20T16:28:32.479Z,98695.25
2019-05-20T16:31:36.181Z,98690.94
2019-05-20T16:34:39.808Z,98685.25
2019-05-20T16:37:43.484Z,98668.11
2019-05-20T16:40:47.159Z,98672.59
2019-05-20T16:43:51.079Z,98670.78
2019-05-20T16:46:54.708Z,98676.18
2019-05-20T16:50:01.614Z,98674.22
2019-05-20T16:53:08.393Z,98678.17
2019-05-20T16:56:20.728Z,98678.61
2019-05-20T16:59:24.382Z,98686.97
2019-05-20T17:02:30.278Z,98682.25
2019-05-20T17:05:34.162Z,98675.10
2019-05-20T17:08:37.770Z,98681.02
2019-05-20T17:11:41.384Z,98686.13
2019-05-20T17:14:45.110Z,98687.02
2019-05-20T17:17:48.851Z,98694.28
2019-05-20T17:20:52.675Z,98709.53
2019-05-20T17:23:57.810Z,98716.19
2019-05-20T17:27:01.443Z,98728.47
2019-05-20T17:30:09.583Z,98744.44
2019-05-20T17:33:15.932Z,98735.34
2019-05-20T17:36:19.608Z,98729.34
2019-05-20T17:39:23.350Z,98736.03
2019-05-20T17:42:27.136Z,98729.78
2019-05-20T17:45:30.805Z,98736.19
2019-05-20T17:48:34.801Z,98735.44
2019-05-20T17:51:38.861Z,98728.35
2019-05-20T17:54:42.513Z,98724.70
2019-05-20T17:57:46.238Z,98719.58
2019-05-20T18:01:14.229Z,98724.61
2019-05-20T18:04:07.382Z,98724.31
2019-05-20T18:07:18.841Z,98725.37
2019-05-20T18:10:23.767Z,98725.12
2019-05-20T18:13:27.565Z,98718.72
2019-05-20T18:16:31.349Z,98714.58
2019-05-20T18:19:34.972Z,98719.09
2019-05-20T18:22:38.730Z,98729.08
2019-05-20T18:25:42.506Z,98718.71
2019-05-20T18:28:47.899Z,98723.64
2019-05-20T18:31:56.075Z,98711.22
2019-05-20T18:34:59.685Z,98714.45
2019-05-20T18:38:03.875Z,98708.04
2019-05-20T18:41:07.581Z,98705.28
2019-05-20T18:44:13.296Z,98710.22
2019-05-20T18:47:16.588Z,98709.69
2019-05-20T18:50:20.396Z,98698.30
2019-05-20T18:53:24.088Z,98691.98
2019-05-20T18:56:27.847Z,98700.83
2019-05-20T18:59:31.614Z,98705.37
2019-05-20T19:02:35.280Z,98702.09
2019-05-20T19:05:40.660Z,98698.88
2019-05-20T19:09:04.528Z,98696.14
2019-05-20T19:12:10.576Z,98698.07
2019-05-20T19:15:19.002Z,98712.89
2019-05-20T19:18:24.150Z,98718.13
2019-05-20T19:21:27.834Z,98726.92
2019-05-20T19:24:31.525Z,98731.02
2019-05-20T19:27:35.300Z,98728.29
2019-05-20T19:30:39.076Z,98728.55
2019-05-20T19:33:42.764Z,98733.50
2019-05-20T19:36:46.512Z,98748.32
2019-05-20T19:39:50.240Z,98754.92
2019-05-20T19:42:56.018Z,98746.41
2019-05-20T19:45:59.349Z,98746.95
2019-05-20T19:49:05.725Z,98747.78
2019-05-20T19:52:09.662Z,98748.05
2019-05-20T19:55:13.455Z,98749.14
2019-05-20T19:58:17.174Z,98745.32
2019-05-20T20:01:20.788Z,98749.44
2019-05-20T20:04:24.443Z,98745.04
2019-05-20T20:07:28.879Z,98742.56
2019-05-20T20:10:32.554Z,98738.19
2019-05-20T20:13:36.227Z,98730.19
2019-05-20T20:16:39.903Z,98726.61
2019-05-20T20:19:43.603Z,98727.45
2019-05-20T20:22:47.271Z,98726.90
2019-05-20T20:25:50.902Z,98724.70
2019-05-20T20:28:54.637Z,98722.77
2019-05-20T20:31:58.321Z,98728.53
2019-05-20T20:35:02.195Z,98736.50
2019-05-20T20:38:05.843Z,98741.20
2019-05-20T20:41:09.519Z,98734.06
2019-05-20T20:44:13.142Z,98730.73
2019-05-20T20:47:16.811Z,98733.23
2019-05-20T20:50:20.497Z,98725.81
2019-05-20T20:53:24.150Z,98727.16
2019-05-20T20:56:27.776Z,98731.29
2019-05-20T20:59:31.521Z,98740.63
2019-05-20T21:02:35.170Z,98742.84
2019-05-20T21:05:38.872Z,98744.47
2019-05-20T21:08:42.492Z,98740.62
2019-05-20T21:11:46.155Z,98742.55
2019-05-20T21:14:49.797Z,98752.47
2019-05-20T21:17:53.463Z,98755.45
2019-05-20T21:20:57.082Z,98763.97
2019-05-20T21:24:00.744Z,98768.94
2019-05-20T21:27:04.698Z,98771.98
2019-05-20T21:30:09.698Z,98776.09
2019-05-20T21:33:13.323Z,98774.72
2019-05-20T21:36:17.038Z,98774.75
2019-05-20T21:39:28.461Z,98774.18
2019-05-20T21:42:29.477Z,98785.98
2019-05-20T21:45:40.644Z,98782.93
2019-05-20T21:48:44.304Z,98771.67
2019-05-20T21:51:47.932Z,98770.05
2019-05-20T21:54:54.592Z,98769.21
2019-05-20T21:57:58.208Z,98771.14
2019-05-20T22:01:02.205Z,98775.55
2019-05-20T22:04:08.071Z,98773.08
2019-05-20T22:07:11.730Z,98772.79
2019-05-20T22:10:19.754Z,98764.02
2019-05-20T22:13:23.406Z,98759.88
2019-05-20T22:16:29.697Z,98770.30
2019-05-20T22:19:32.439Z,98767.57
2019-05-20T22:22:43.933Z,98757.42
2019-05-20T22:25:50.705Z,98758.48
2019-05-20T22:28:54.397Z,98756.05
2019-05-20T22:32:22.189Z,98755.50
2019-05-20T22:35:27.494Z,98752.73
2019-05-20T22:38:31.959Z,98761.80
2019-05-20T22:41:38.548Z,98773.58
2019-05-20T22:44:42.244Z,98768.06
2019-05-20T22:47:45.869Z,98767.48
2019-05-20T22:50:49.708Z,98772.69
2019-05-20T22:53:53.335Z,98770.99
2019-05-20T22:56:59.972Z,98771.53
2019-05-20T23:00:04.754Z,98767.98
2019-05-20T23:03:08.439Z,98767.73
2019-05-20T23:06:12.066Z,98756.19
2019-05-20T23:13:39.881Z,98755.33
2019-05-20T23:16:14.843Z,98749.73
2019-05-20T23:19:18.501Z,98752.20
2019-05-20T23:22:21.868Z,98752.47
2019-05-20T23:25:25.471Z,98745.30
2019-05-20T23:28:30.600Z,98744.72
2019-05-20T23:31:34.261Z,98743.87
2019-05-20T23:34:37.860Z,98742.75
2019-05-20T23:37:41.402Z,98747.58
2019-05-20T23:40:44.970Z,98756.91
2019-05-20T23:43:48.886Z,98753.56
2019-05-20T23:46:52.449Z,98756.77
2019-05-20T23:49:55.997Z,98758.33
2019-05-20T23:53:01.175Z,98752.82
2019-05-20T23:56:04.892Z,98753.63
2019-05-20T23:59:08.511Z,98757.16
